createdAt,value
2022-10-20T00:03:12.160Z,90.13
2022-10-20T00:06:54.744Z,89.65
2022-10-20T00:10:37.422Z,89.65
2022-10-20T00:14:20.191Z,89.92
2022-10-20T00:18:04.295Z,90.37
2022-10-20T00:21:46.963Z,90.96
2022-10-20T00:25:29.614Z,91.62
2022-10-20T00:29:14.865Z,91.95
2022-10-20T00:32:57.653Z,92.32
2022-10-20T00:36:41.695Z,92.81
2022-10-20T00:40:24.332Z,93.22
2022-10-20T00:44:40.122Z,93.69
2022-10-20T00:48:25.271Z,94.08
2022-10-20T00:52:09.371Z,94.74
2022-10-20T00:55:53.378Z,95.18
2022-10-20T00:59:37.076Z,95.59
2022-10-20T01:03:25.326Z,95.99
2022-10-20T01:07:09.409Z,95.97
2022-10-20T01:10:57.336Z,95.90
2022-10-20T01:14:42.674Z,95.52
2022-10-20T01:18:31.232Z,95.17
2022-10-20T01:22:40.757Z,95.74
2022-10-20T01:26:37.557Z,95.93
2022-10-20T01:30:23.127Z,96.13
2022-10-20T01:34:10.048Z,96.72
2022-10-20T01:37:55.028Z,96.43
2022-10-20T01:41:42.513Z,96.53
2022-10-20T01:45:29.161Z,96.46
2022-10-20T01:49:12.961Z,96.36
2022-10-20T01:52:56.722Z,97.05
2022-10-20T01:56:43.694Z,96.76
2022-10-20T02:00:27.839Z,96.80
2022-10-20T02:04:10.695Z,96.76
2022-10-20T02:07:57.545Z,96.95
2022-10-20T02:11:45.284Z,96.18
2022-10-20T02:15:31.338Z,96.16
2022-10-20T02:19:15.618Z,96.36
2022-10-20T02:22:59.128Z,96.25
2022-10-20T02:26:41.908Z,95.86
2022-10-20T02:30:26.363Z,95.74
2022-10-20T02:34:10.533Z,95.11
2022-10-20T02:37:53.244Z,94.82
2022-10-20T02:41:36.429Z,94.65
2022-10-20T02:45:19.147Z,94.48
2022-10-20T02:49:01.769Z,93.93
2022-10-20T02:52:45.811Z,94.18
2022-10-20T02:56:30.927Z,94.59
2022-10-20T03:00:17.841Z,95.07
2022-10-20T03:04:00.778Z,94.79
2022-10-20T03:07:44.791Z,95.03
2022-10-20T03:11:27.503Z,94.82
2022-10-20T03:15:10.771Z,94.30
2022-10-20T03:18:53.739Z,95.15
2022-10-20T03:22:36.344Z,95.25
2022-10-20T03:26:20.338Z,95.39
2022-10-20T03:30:02.971Z,95.32
2022-10-20T03:33:45.678Z,95.47
2022-10-20T03:37:28.333Z,95.56
2022-10-20T03:41:11.125Z,95.69
2022-10-20T03:44:55.138Z,95.65
2022-10-20T03:48:39.022Z,95.24
2022-10-20T03:52:21.676Z,95.30
2022-10-20T03:56:07.117Z,96.09
2022-10-20T03:59:49.755Z,95.42
2022-10-20T04:03:33.726Z,95.07
2022-10-20T04:07:16.316Z,94.63
2022-10-20T04:11:02.270Z,94.76
2022-10-20T04:14:44.860Z,94.97
2022-10-20T04:18:27.545Z,95.40
2022-10-20T04:22:11.516Z,95.42
2022-10-20T04:25:54.177Z,95.29
2022-10-20T04:29:37.029Z,95.22
2022-10-20T04:33:19.785Z,95.10
2022-10-20T04:37:02.470Z,94.72
2022-10-20T04:40:46.468Z,95.01
2022-10-20T04:44:29.129Z,95.00
2022-10-20T04:48:11.782Z,94.83
2022-10-20T04:51:58.618Z,94.74
2022-10-20T04:55:43.637Z,94.21
2022-10-20T04:59:28.009Z,94.54
2022-10-20T05:03:14.721Z,94.54
2022-10-20T05:06:57.403Z,94.37
2022-10-20T05:10:40.106Z,94.79
2022-10-20T05:14:22.989Z,95.09
2022-10-20T05:18:07.034Z,94.60
2022-10-20T05:21:49.674Z,93.84
2022-10-20T05:25:36.529Z,93.71
2022-10-20T05:29:19.701Z,93.90
2022-10-20T05:33:02.427Z,93.46
2022-10-20T05:36:46.415Z,93.58
2022-10-20T05:40:31.571Z,93.73
2022-10-20T05:44:14.850Z,94.34
2022-10-20T05:47:57.514Z,94.19
2022-10-20T05:51:40.169Z,94.36
2022-10-20T05:55:24.267Z,92.99
2022-10-20T05:59:07.397Z,92.83
2022-10-20T06:02:50.062Z,92.40
2022-10-20T06:06:32.916Z,92.05
2022-10-20T06:10:15.807Z,91.82
2022-10-20T06:13:59.892Z,91.95
2022-10-20T06:17:42.606Z,92.47
2022-10-20T06:21:30.033Z,91.58
2022-10-20T06:25:12.806Z,91.34
2022-10-20T06:29:04.001Z,91.58
2022-10-20T06:32:48.830Z,90.54
2022-10-20T06:36:31.486Z,90.38
2022-10-20T06:40:14.406Z,91.54
2022-10-20T06:43:59.778Z,100.00
2022-10-20T06:47:42.422Z,91.63
2022-10-20T06:51:26.564Z,83.85
2022-10-20T06:55:10.186Z,77.71
2022-10-20T06:58:54.855Z,77.68
2022-10-20T07:02:39.373Z,78.82
2022-10-20T07:06:25.321Z,79.95
2022-10-20T07:10:10.301Z,80.95
2022-10-20T07:13:53.284Z,81.65
2022-10-20T07:17:35.937Z,81.62
2022-10-20T07:21:20.136Z,82.20
2022-10-20T07:25:06.816Z,82.45
2022-10-20T07:28:55.763Z,83.34
2022-10-20T07:32:39.128Z,83.24
2022-10-20T07:36:23.952Z,83.92
2022-10-20T07:40:07.532Z,83.72
2022-10-20T07:43:54.199Z,83.87
2022-10-20T07:47:38.387Z,84.11
2022-10-20T07:51:30.077Z,83.49
2022-10-20T07:55:33.394Z,82.90
2022-10-20T07:59:16.790Z,82.53
2022-10-20T08:02:59.443Z,81.89
2022-10-20T08:06:42.097Z,81.49
2022-10-20T08:10:24.721Z,81.31
2022-10-20T08:14:07.350Z,81.29
2022-10-20T08:17:51.354Z,80.20
2022-10-20T08:21:34.161Z,80.00
2022-10-20T08:25:16.833Z,79.62
2022-10-20T08:28:59.532Z,79.76
2022-10-20T08:32:42.346Z,80.07
2022-10-20T08:36:28.124Z,80.14
2022-10-20T08:40:15.053Z,79.61
2022-10-20T08:43:59.215Z,78.69
2022-10-20T08:47:41.843Z,78.53
2022-10-20T08:51:27.937Z,77.86
2022-10-20T08:55:17.717Z,77.54
2022-10-20T08:59:00.514Z,77.21
2022-10-20T09:02:43.585Z,77.28
2022-10-20T09:06:27.599Z,77.39
2022-10-20T09:10:24.894Z,76.61
2022-10-20T09:14:09.419Z,76.77
2022-10-20T09:17:54.790Z,76.07
2022-10-20T09:21:39.714Z,74.89
2022-10-20T09:25:24.059Z,74.30
2022-10-20T09:29:15.834Z,74.28
2022-10-20T09:32:58.704Z,74.02
2022-10-20T09:36:43.023Z,73.77
2022-10-20T09:40:27.111Z,72.89
2022-10-20T09:44:15.721Z,72.36
2022-10-20T09:48:02.747Z,72.52
2022-10-20T09:51:49.113Z,72.41
2022-10-20T09:55:32.980Z,72.30
2022-10-20T09:59:21.587Z,72.22
2022-10-20T10:03:22.980Z,71.70
2022-10-20T10:07:11.928Z,71.82
2022-10-20T10:11:05.562Z,72.06
2022-10-20T10:14:52.416Z,71.66
2022-10-20T10:18:38.031Z,71.04
2022-10-20T10:22:22.080Z,70.66
2022-10-20T10:26:23.522Z,69.83
2022-10-20T10:30:27.695Z,70.96
2022-10-20T10:34:31.944Z,70.83
2022-10-20T10:38:15.972Z,70.19
2022-10-20T10:42:07.681Z,70.42
2022-10-20T10:45:53.174Z,70.13
2022-10-20T10:49:44.382Z,70.13
2022-10-20T10:53:38.300Z,69.80
2022-10-20T10:57:27.678Z,70.44
2022-10-20T11:01:19.308Z,70.05
2022-10-20T11:05:22.831Z,69.67
2022-10-20T11:09:22.631Z,68.91
2022-10-20T11:13:16.477Z,68.14
2022-10-20T11:17:07.861Z,67.68
2022-10-20T11:20:55.642Z,66.91
2022-10-20T11:24:47.556Z,66.52
2022-10-20T11:28:34.415Z,66.13
2022-10-20T11:32:23.586Z,66.25
2022-10-20T11:36:10.554Z,65.41
2022-10-20T11:39:59.545Z,65.18
2022-10-20T11:43:47.747Z,65.33
2022-10-20T11:47:37.113Z,64.95
2022-10-20T11:51:42.726Z,65.49
2022-10-20T11:55:36.687Z,63.28
2022-10-20T12:00:01.612Z,64.05
2022-10-20T12:04:00.931Z,63.71
2022-10-20T12:08:11.077Z,63.25
2022-10-20T12:12:03.404Z,62.69
2022-10-20T12:15:47.458Z,62.16
2022-10-20T12:19:31.595Z,62.65
2022-10-20T12:23:49.257Z,61.52
2022-10-20T12:27:33.221Z,60.48
2022-10-20T12:31:15.830Z,60.75
2022-10-20T12:35:00.598Z,60.97
2022-10-20T12:38:44.221Z,60.55
2022-10-20T12:42:30.488Z,59.79
2022-10-20T12:46:21.154Z,59.28
2022-10-20T12:50:07.952Z,58.79
2022-10-20T12:53:57.397Z,58.38
2022-10-20T12:57:42.364Z,57.87
2022-10-20T13:01:28.313Z,57.88
2022-10-20T13:05:45.763Z,58.87
2022-10-20T13:09:31.329Z,58.62
2022-10-20T13:13:37.765Z,57.87
2022-10-20T13:17:25.611Z,56.95
2022-10-20T13:21:22.568Z,56.90
2022-10-20T13:25:07.395Z,56.63
2022-10-20T13:28:51.808Z,56.56
2022-10-20T13:32:48.017Z,55.88
2022-10-20T13:36:54.497Z,55.63
2022-10-20T13:40:44.266Z,56.17
2022-10-20T13:44:34.141Z,56.38
2022-10-20T13:48:30.874Z,57.24
2022-10-20T13:52:15.793Z,57.83
2022-10-20T13:56:01.207Z,58.59
2022-10-20T13:59:56.640Z,58.19
2022-10-20T14:03:44.970Z,57.35
2022-10-20T14:07:38.959Z,57.70
2022-10-20T14:11:21.737Z,57.98
2022-10-20T14:15:05.665Z,58.81
2022-10-20T14:19:06.208Z,59.87
2022-10-20T14:22:49.056Z,60.82
2022-10-20T14:26:31.826Z,59.21
2022-10-20T14:30:16.824Z,60.02
2022-10-20T14:34:00.850Z,61.04
2022-10-20T14:37:47.123Z,61.79
2022-10-20T14:41:31.593Z,62.01
2022-10-20T14:45:22.878Z,62.47
2022-10-20T14:49:14.432Z,63.60
2022-10-20T14:52:57.151Z,63.83
2022-10-20T14:56:44.678Z,64.61
2022-10-20T15:00:30.954Z,64.33
2022-10-20T15:04:24.427Z,64.38
2022-10-20T15:08:15.718Z,64.15
2022-10-20T15:11:58.669Z,64.06
2022-10-20T15:15:41.556Z,64.39
2022-10-20T15:19:35.085Z,65.03
2022-10-20T15:23:18.691Z,65.26
2022-10-20T15:27:02.876Z,64.71
2022-10-20T15:30:45.658Z,65.08
2022-10-20T15:34:28.287Z,65.48
2022-10-20T15:38:12.345Z,65.90
2022-10-20T15:41:54.982Z,66.27
2022-10-20T15:45:40.352Z,66.57
2022-10-20T15:49:25.807Z,66.98
2022-10-20T15:53:08.483Z,67.14
2022-10-20T15:56:52.502Z,67.04
2022-10-20T16:00:35.409Z,67.33
2022-10-20T16:04:22.278Z,68.34
2022-10-20T16:08:05.325Z,68.48
2022-10-20T16:11:48.156Z,68.79
2022-10-20T16:15:32.374Z,68.56
2022-10-20T16:19:15.008Z,68.36
2022-10-20T16:22:57.704Z,68.69
2022-10-20T16:26:40.350Z,69.03
2022-10-20T16:30:23.017Z,69.25
2022-10-20T16:34:07.029Z,69.86
2022-10-20T16:37:49.650Z,70.14
2022-10-20T16:41:32.283Z,70.37
2022-10-20T16:45:14.967Z,70.50
2022-10-20T16:49:00.442Z,71.12
2022-10-20T16:52:44.468Z,71.48
2022-10-20T16:56:27.653Z,71.51
2022-10-20T17:00:11.162Z,71.72
2022-10-20T17:03:54.538Z,71.38
2022-10-20T17:07:37.498Z,71.35
2022-10-20T17:11:23.744Z,71.41
2022-10-20T17:15:07.081Z,71.65
2022-10-20T17:18:49.802Z,71.96
2022-10-20T17:22:32.726Z,72.27
2022-10-20T17:26:16.533Z,72.74
2022-10-20T17:30:00.544Z,72.87
2022-10-20T17:33:43.697Z,72.76
2022-10-20T17:37:26.304Z,73.06
2022-10-20T17:41:10.972Z,73.20
2022-10-20T17:44:53.618Z,73.77
2022-10-20T17:48:38.012Z,74.01
2022-10-20T17:52:20.603Z,74.29
2022-10-20T17:56:04.529Z,77.83
2022-10-20T18:00:12.840Z,76.96
2022-10-20T18:04:00.674Z,77.31
2022-10-20T18:07:43.341Z,77.84
2022-10-20T18:11:27.967Z,78.16
2022-10-20T18:15:10.753Z,78.62
2022-10-20T18:18:53.957Z,78.92
2022-10-20T18:22:38.357Z,78.65
2022-10-20T18:26:21.510Z,79.49
2022-10-20T18:30:04.625Z,78.92
2022-10-20T18:33:48.264Z,79.76
2022-10-20T18:37:33.689Z,79.40
2022-10-20T18:41:20.095Z,78.53
2022-10-20T18:45:02.741Z,78.16
2022-10-20T18:48:45.498Z,78.69
2022-10-20T18:52:28.170Z,78.87
2022-10-20T18:56:14.135Z,79.41
2022-10-20T18:59:58.412Z,78.93
2022-10-20T19:03:41.906Z,79.50
2022-10-20T19:07:24.613Z,79.75
2022-10-20T19:11:11.245Z,79.55
2022-10-20T19:14:53.891Z,79.39
2022-10-20T19:18:40.489Z,78.83
2022-10-20T19:22:26.953Z,78.74
2022-10-20T19:26:14.259Z,79.33
2022-10-20T19:30:00.884Z,79.99
2022-10-20T19:33:44.920Z,79.96
2022-10-20T19:37:28.898Z,79.12
2022-10-20T19:41:11.584Z,79.27
2022-10-20T19:44:54.487Z,79.07
2022-10-20T19:48:37.693Z,78.55
2022-10-20T19:52:21.701Z,78.38
2022-10-20T19:56:04.489Z,78.11
2022-10-20T19:59:55.725Z,78.08
2022-10-20T20:03:38.689Z,79.08
2022-10-20T20:07:22.719Z,80.26
2022-10-20T20:11:06.656Z,79.60
2022-10-20T20:18:57.229Z,78.32
2022-10-20T20:22:41.279Z,78.20
2022-10-20T20:26:24.741Z,77.44
2022-10-20T20:30:17.018Z,77.46
2022-10-20T20:33:59.726Z,77.71
2022-10-20T20:37:44.957Z,77.92
2022-10-20T20:41:30.122Z,77.46
2022-10-20T20:45:21.955Z,77.72
2022-10-20T20:49:04.852Z,77.17
2022-10-20T20:52:49.615Z,77.36
2022-10-20T20:56:32.462Z,78.16
2022-10-20T21:00:28.060Z,78.87
2022-10-20T21:04:11.354Z,78.83
2022-10-20T21:07:55.386Z,77.81
2022-10-20T21:11:38.296Z,78.86
2022-10-20T21:15:29.771Z,79.54
2022-10-20T21:19:12.742Z,80.04
2022-10-20T21:22:56.844Z,82.63
2022-10-20T21:26:44.009Z,81.81
2022-10-20T21:30:36.016Z,83.78
2022-10-20T21:34:18.705Z,84.10
2022-10-20T21:38:03.086Z,83.86
2022-10-20T21:41:49.739Z,84.26
2022-10-20T21:45:41.387Z,85.56
2022-10-20T21:49:25.384Z,85.17
2022-10-20T21:53:09.520Z,85.47
2022-10-20T21:56:52.803Z,86.61
2022-10-20T22:01:00.311Z,85.77
2022-10-20T22:04:43.004Z,86.05
2022-10-20T22:08:27.043Z,85.95
2022-10-20T22:12:09.741Z,85.86
2022-10-20T22:16:02.845Z,85.50
2022-10-20T22:19:46.448Z,85.69
2022-10-20T22:23:30.501Z,84.60
2022-10-20T22:27:25.061Z,85.06
2022-10-20T22:31:17.384Z,85.72
2022-10-20T22:35:00.957Z,86.65
2022-10-20T22:38:44.969Z,87.28
2022-10-20T22:42:27.648Z,87.65
2022-10-20T22:46:18.618Z,86.50
2022-10-20T22:50:01.306Z,83.40
2022-10-20T22:53:47.892Z,84.19
2022-10-20T22:57:30.549Z,84.21
2022-10-20T23:01:31.389Z,85.27
2022-10-20T23:05:14.158Z,85.34
2022-10-20T23:08:58.296Z,86.15
2022-10-20T23:12:41.070Z,86.58
2022-10-20T23:16:39.175Z,86.99
2022-10-20T23:20:21.802Z,87.21
2022-10-20T23:24:06.315Z,88.66
2022-10-20T23:27:48.973Z,89.19
2022-10-20T23:31:34.811Z,89.92
2022-10-20T23:35:17.501Z,89.83
2022-10-20T23:39:00.573Z,90.59
2022-10-20T23:42:44.671Z,91.17
2022-10-20T23:46:51.925Z,92.22
2022-10-20T23:50:34.591Z,92.40
2022-10-20T23:54:17.277Z,92.44
2022-10-20T23:58:01.342Z,92.50
